createdAt,value
2022-11-05T00:00:31.794Z,99171.19
2022-11-05T00:03:17.761Z,99165.78
2022-11-05T00:06:05.128Z,99165.72
2022-11-05T00:08:50.845Z,99166.50
2022-11-05T00:11:40.725Z,99165.66
2022-11-05T00:14:26.962Z,99169.94
2022-11-05T00:16:55.438Z,99163.81
2022-11-05T00:19:23.797Z,99177.69
2022-11-05T00:22:09.850Z,99175.88
2022-11-05T00:24:55.645Z,99175.97
2022-11-05T00:27:25.351Z,99170.75
2022-11-05T00:29:53.795Z,99168.16
2022-11-05T00:32:24.242Z,99170.97
2022-11-05T00:34:52.621Z,99171.91
2022-11-05T00:37:21.009Z,99170.34
2022-11-05T00:39:49.431Z,99172.88
2022-11-05T00:42:35.872Z,99181.72
2022-11-05T00:45:06.374Z,99188.00
2022-11-05T00:47:52.512Z,99188.09
2022-11-05T00:50:22.570Z,99186.38
2022-11-05T00:52:58.678Z,99186.38
2022-11-05T00:55:30.699Z,99182.13
2022-11-05T00:57:59.038Z,99176.91
2022-11-05T01:00:31.094Z,99188.34
2022-11-05T01:03:01.153Z,99185.03
2022-11-05T01:05:31.181Z,99191.19
2022-11-05T01:08:00.991Z,99185.09
2022-11-05T01:10:29.966Z,99183.31
2022-11-05T01:12:59.059Z,99182.47
2022-11-05T01:15:29.000Z,99196.28
2022-11-05T01:17:58.236Z,99194.69
2022-11-05T01:20:27.780Z,99201.78
2022-11-05T01:22:56.141Z,99200.03
2022-11-05T01:25:24.703Z,99198.38
2022-11-05T01:27:53.701Z,99202.81
2022-11-05T01:30:22.264Z,99210.72
2022-11-05T01:32:51.995Z,99209.94
2022-11-05T01:35:20.599Z,99218.78
2022-11-05T01:37:49.339Z,99225.91
2022-11-05T01:40:19.844Z,99226.91
2022-11-05T01:42:48.743Z,99239.09
2022-11-05T01:45:19.863Z,99227.72
2022-11-05T01:47:58.601Z,99238.28
2022-11-05T01:50:38.261Z,99251.41
2022-11-05T01:53:16.745Z,99247.06
2022-11-05T01:55:52.721Z,99255.72
2022-11-05T01:58:27.356Z,99252.97
2022-11-05T02:00:57.552Z,99247.53
2022-11-05T02:03:27.996Z,99261.50
2022-11-05T02:05:58.460Z,99259.72
2022-11-05T02:08:52.554Z,99261.59
2022-11-05T02:11:21.954Z,99254.63
2022-11-05T02:13:50.883Z,99265.00
2022-11-05T02:16:31.036Z,99265.81
2022-11-05T02:19:14.383Z,99258.06
2022-11-05T02:22:03.241Z,99262.44
2022-11-05T02:24:55.752Z,99256.25
2022-11-05T02:27:42.436Z,99259.78
2022-11-05T02:30:26.319Z,99262.44
2022-11-05T02:33:28.514Z,99262.41
2022-11-05T02:36:25.319Z,99261.53
2022-11-05T02:39:06.197Z,99262.31
2022-11-05T02:41:42.112Z,99252.63
2022-11-05T02:44:23.514Z,99251.72
2022-11-05T02:46:59.418Z,99247.38
2022-11-05T02:49:40.872Z,99244.78
2022-11-05T02:52:16.179Z,99249.16
2022-11-05T02:54:53.184Z,99253.69
2022-11-05T02:57:23.214Z,99250.22
2022-11-05T03:00:01.830Z,99244.25
2022-11-05T03:02:32.318Z,99252.88
2022-11-05T03:05:01.501Z,99247.63
2022-11-05T03:07:39.268Z,99256.41
2022-11-05T03:10:25.832Z,99249.50
2022-11-05T03:13:05.533Z,99246.03
2022-11-05T03:15:48.015Z,99244.41
2022-11-05T03:18:27.201Z,99248.81
2022-11-05T03:21:04.195Z,99251.47
2022-11-05T03:23:43.251Z,99248.91
2022-11-05T03:26:17.315Z,99251.59
2022-11-05T03:28:51.549Z,99245.50
2022-11-05T03:31:21.930Z,99248.16
2022-11-05T03:33:54.008Z,99250.75
2022-11-05T03:36:27.637Z,99251.56
2022-11-05T03:39:00.123Z,99254.09
2022-11-05T03:41:30.509Z,99257.56
2022-11-05T03:44:02.768Z,99265.47
2022-11-05T03:46:35.262Z,99269.78
2022-11-05T03:49:09.112Z,99275.78
2022-11-05T03:51:42.776Z,99268.84
2022-11-05T03:54:11.965Z,99268.00
2022-11-05T03:56:45.673Z,99261.00
2022-11-05T03:59:15.207Z,99265.38
2022-11-05T04:01:43.787Z,99269.72
2022-11-05T04:04:13.647Z,99276.66
2022-11-05T04:06:59.826Z,99272.28
2022-11-05T04:09:46.045Z,99280.31
2022-11-05T04:12:31.859Z,99281.25
2022-11-05T04:15:00.233Z,99290.00
2022-11-05T04:17:27.603Z,99292.50
2022-11-05T04:20:15.099Z,99287.25
2022-11-05T04:23:00.722Z,99284.69
2022-11-05T04:25:29.156Z,99290.88
2022-11-05T04:28:00.591Z,99296.16
2022-11-05T04:30:27.966Z,99297.97
2022-11-05T04:33:02.729Z,99302.34
2022-11-05T04:35:34.963Z,99293.69
2022-11-05T04:38:05.146Z,99293.69
2022-11-05T04:40:34.061Z,99310.25
2022-11-05T04:43:02.847Z,99303.25
2022-11-05T04:45:34.156Z,99306.78
2022-11-05T04:48:03.238Z,99313.78
2022-11-05T04:50:34.018Z,99311.06
2022-11-05T04:53:02.385Z,99312.75
2022-11-05T04:55:31.197Z,99308.41
2022-11-05T04:57:59.647Z,99316.22
2022-11-05T05:00:28.135Z,99310.13
2022-11-05T05:02:56.624Z,99318.00
2022-11-05T05:05:24.975Z,99309.25
2022-11-05T05:07:54.706Z,99317.09
2022-11-05T05:10:23.178Z,99310.94
2022-11-05T05:12:51.571Z,99318.75
2022-11-05T05:15:20.057Z,99323.06
2022-11-05T05:17:51.538Z,99313.44
2022-11-05T05:20:38.163Z,99316.03
2022-11-05T05:23:08.208Z,99318.59
2022-11-05T05:25:36.705Z,99314.25
2022-11-05T05:28:05.383Z,99314.31
2022-11-05T05:30:33.727Z,99321.31
2022-11-05T05:33:03.411Z,99312.53
2022-11-05T05:35:31.795Z,99313.50
2022-11-05T05:38:00.102Z,99310.88
2022-11-05T05:40:29.914Z,99315.28
2022-11-05T05:42:58.327Z,99309.16
2022-11-05T05:45:26.796Z,99317.00
2022-11-05T05:47:56.380Z,99312.63
2022-11-05T05:50:25.146Z,99307.41
2022-11-05T05:52:54.217Z,99309.13
2022-11-05T05:55:22.606Z,99308.16
2022-11-05T05:57:52.530Z,99312.59
2022-11-05T06:00:21.139Z,99318.72
2022-11-05T06:02:49.612Z,99325.78
2022-11-05T06:05:18.110Z,99317.03
2022-11-05T06:07:46.493Z,99326.63
2022-11-05T06:10:15.053Z,99327.53
2022-11-05T06:12:43.480Z,99331.88
2022-11-05T06:15:13.340Z,99331.81
2022-11-05T06:17:44.001Z,99339.69
2022-11-05T06:20:13.419Z,99350.97
2022-11-05T06:22:41.842Z,99345.75
2022-11-05T06:25:10.602Z,99345.72
2022-11-05T06:27:38.938Z,99343.22
2022-11-05T06:30:08.721Z,99346.75
2022-11-05T06:32:39.657Z,99348.50
2022-11-05T06:35:08.499Z,99347.56
2022-11-05T06:37:36.934Z,99352.81
2022-11-05T06:40:06.326Z,99355.38
2022-11-05T06:42:34.767Z,99364.97
2022-11-05T06:45:03.549Z,99367.56
2022-11-05T06:47:32.096Z,99371.06
2022-11-05T06:50:01.826Z,99368.47
2022-11-05T06:52:31.260Z,99370.25
2022-11-05T06:54:59.678Z,99371.97
2022-11-05T06:57:28.049Z,99376.31
2022-11-05T07:00:01.358Z,99386.81
2022-11-05T07:02:31.709Z,99371.06
2022-11-05T07:05:01.391Z,99376.28
2022-11-05T07:07:29.789Z,99386.75
2022-11-05T07:09:58.189Z,99384.09
2022-11-05T07:12:26.762Z,99380.59
2022-11-05T07:14:55.152Z,99390.06
2022-11-05T07:17:23.686Z,99379.38
2022-11-05T07:19:52.059Z,99373.75
2022-11-05T07:22:21.894Z,99394.28
2022-11-05T07:24:50.357Z,99390.50
2022-11-05T07:27:18.955Z,99398.03
2022-11-05T07:29:47.307Z,99392.44
2022-11-05T07:32:15.719Z,99402.91
2022-11-05T07:34:44.194Z,99400.16
2022-11-05T07:37:12.723Z,99410.81
2022-11-05T07:39:42.520Z,99406.25
2022-11-05T07:42:13.571Z,99410.78
2022-11-05T07:44:42.393Z,99408.63
2022-11-05T07:47:10.729Z,99414.50
2022-11-05T07:49:39.195Z,99415.44
2022-11-05T07:52:07.519Z,99410.97
2022-11-05T07:54:36.231Z,99423.19
2022-11-05T07:57:05.946Z,99424.53
2022-11-05T07:59:34.347Z,99426.34
2022-11-05T08:02:02.921Z,99421.03
2022-11-05T08:04:31.481Z,99432.47
2022-11-05T08:07:00.065Z,99427.13
2022-11-05T08:09:31.508Z,99422.38
2022-11-05T08:12:03.202Z,99418.97
2022-11-05T08:14:33.372Z,99417.47
2022-11-05T08:17:01.907Z,99420.78
2022-11-05T08:19:30.308Z,99417.75
2022-11-05T08:21:58.656Z,99420.69
2022-11-05T08:24:27.063Z,99414.84
2022-11-05T08:26:55.882Z,99411.25
2022-11-05T08:29:24.250Z,99407.44
2022-11-05T08:31:53.979Z,99405.03
2022-11-05T08:34:22.507Z,99410.72
2022-11-05T08:36:51.199Z,99421.13
2022-11-05T08:39:19.890Z,99412.19
2022-11-05T08:41:48.402Z,99416.94
2022-11-05T08:44:16.764Z,99424.69
2022-11-05T08:46:45.435Z,99423.53
2022-11-05T08:49:15.156Z,99415.53
2022-11-05T08:51:44.928Z,99420.06
2022-11-05T08:54:16.573Z,99416.13
2022-11-05T08:56:45.851Z,99421.59
2022-11-05T08:59:14.191Z,99421.84
2022-11-05T09:01:42.653Z,99423.16
2022-11-05T09:04:37.471Z,99427.78
2022-11-05T09:07:05.800Z,99428.75
2022-11-05T09:09:34.207Z,99422.28
2022-11-05T09:12:17.928Z,99422.94
2022-11-05T09:14:46.529Z,99425.13
2022-11-05T09:17:18.417Z,99431.34
2022-11-05T09:19:49.913Z,99432.09
2022-11-05T09:22:18.285Z,99423.34
2022-11-05T09:24:46.632Z,99428.38
2022-11-05T09:27:15.184Z,99429.16
2022-11-05T09:29:43.856Z,99424.38
2022-11-05T09:32:12.426Z,99434.22
2022-11-05T09:34:44.238Z,99435.28
2022-11-05T09:37:13.953Z,99436.03
2022-11-05T09:39:42.505Z,99439.66
2022-11-05T09:42:15.976Z,99441.22
2022-11-05T09:44:47.925Z,99438.28
2022-11-05T09:47:20.957Z,99446.41
2022-11-05T09:49:53.185Z,99452.00
2022-11-05T09:52:26.484Z,99433.56
2022-11-05T09:54:56.502Z,99448.00
2022-11-05T09:57:29.118Z,99449.13
2022-11-05T10:00:00.144Z,99453.34
2022-11-05T10:02:31.337Z,99453.84
2022-11-05T10:05:09.389Z,99448.56
2022-11-05T10:07:44.051Z,99454.19
2022-11-05T10:10:26.291Z,99458.59
2022-11-05T10:12:59.192Z,99462.28
2022-11-05T10:15:31.644Z,99447.47
2022-11-05T10:18:03.996Z,99448.69
2022-11-05T10:20:35.215Z,99454.81
2022-11-05T10:23:11.994Z,99459.81
2022-11-05T10:25:44.167Z,99450.97
2022-11-05T10:28:18.309Z,99458.19
2022-11-05T10:30:49.703Z,99469.44
2022-11-05T10:33:28.839Z,99457.97
2022-11-05T10:36:03.651Z,99449.22
2022-11-05T10:38:34.172Z,99459.63
2022-11-05T10:41:22.989Z,99466.44
2022-11-05T10:43:53.390Z,99465.31
2022-11-05T10:46:31.832Z,99473.38
2022-11-05T10:49:23.754Z,99477.19
2022-11-05T10:51:58.218Z,99483.38
2022-11-05T10:54:36.013Z,99486.25
2022-11-05T10:57:31.112Z,99479.66
2022-11-05T11:00:28.779Z,99485.72
2022-11-05T11:03:02.335Z,99483.00
2022-11-05T11:05:33.650Z,99487.78
2022-11-05T11:08:07.714Z,99491.47
2022-11-05T11:10:42.441Z,99485.91
2022-11-05T11:13:21.360Z,99500.88
2022-11-05T11:15:51.075Z,99485.78
2022-11-05T11:18:27.961Z,99487.72
2022-11-05T11:21:06.923Z,99489.38
2022-11-05T11:23:40.504Z,99488.06
2022-11-05T11:26:12.845Z,99483.34
2022-11-05T11:28:45.547Z,99483.50
2022-11-05T11:31:16.528Z,99479.28
2022-11-05T11:33:47.524Z,99482.97
2022-11-05T11:36:19.737Z,99479.94
2022-11-05T11:38:48.795Z,99483.41
2022-11-05T11:42:01.783Z,99476.19
2022-11-05T11:44:40.711Z,99484.13
2022-11-05T11:47:13.698Z,99474.69
2022-11-05T11:49:52.446Z,99456.28
2022-11-05T11:52:29.113Z,99467.66
2022-11-05T11:55:22.279Z,99463.31
2022-11-05T11:57:54.558Z,99464.84
2022-11-05T12:00:26.900Z,99457.25
2022-11-05T12:03:18.362Z,99456.44
2022-11-05T12:05:52.487Z,99446.69
2022-11-05T12:08:45.586Z,99461.47
2022-11-05T12:11:24.604Z,99459.59
2022-11-05T12:14:03.963Z,99448.97
2022-11-05T12:17:21.768Z,99439.22
2022-11-05T12:20:04.142Z,99442.47
2022-11-05T12:22:49.621Z,99434.59
2022-11-05T12:25:26.614Z,99422.75
2022-11-05T12:28:11.648Z,99434.09
2022-11-05T12:30:51.646Z,99431.09
2022-11-05T12:33:35.392Z,99432.81
2022-11-05T12:36:12.844Z,99423.84
2022-11-05T12:39:01.039Z,99416.91
2022-11-05T12:41:34.825Z,99419.84
2022-11-05T12:44:17.399Z,99421.97
2022-11-05T12:46:58.751Z,99419.53
2022-11-05T12:49:42.254Z,99422.00
2022-11-05T12:52:28.910Z,99415.16
2022-11-05T12:55:05.355Z,99410.09
2022-11-05T12:57:38.511Z,99406.34
2022-11-05T13:00:16.326Z,99407.38
2022-11-05T13:02:51.876Z,99412.53
2022-11-05T13:05:27.339Z,99411.88
2022-11-05T13:07:57.739Z,99401.91
2022-11-05T13:10:30.938Z,99406.59
2022-11-05T13:13:05.884Z,99412.13
2022-11-05T13:15:40.239Z,99398.56
2022-11-05T13:18:16.127Z,99389.50
2022-11-05T13:20:50.063Z,99396.41
2022-11-05T13:23:27.100Z,99397.03
2022-11-05T13:26:01.563Z,99393.16
2022-11-05T13:28:39.648Z,99400.03
2022-11-05T13:31:15.129Z,99398.72
2022-11-05T13:33:46.654Z,99395.63
2022-11-05T13:36:36.009Z,99381.47
2022-11-05T13:39:15.598Z,99387.16
2022-11-05T13:42:06.496Z,99375.22
2022-11-05T13:44:52.140Z,99384.59
2022-11-05T13:48:02.308Z,99387.34
2022-11-05T13:51:03.053Z,99374.19
2022-11-05T13:54:03.008Z,99374.22
2022-11-05T13:56:41.700Z,99378.66
2022-11-05T13:59:33.590Z,99377.84
2022-11-05T14:02:05.299Z,99363.16
2022-11-05T14:04:38.736Z,99371.78
2022-11-05T14:07:12.700Z,99362.22
2022-11-05T14:09:41.873Z,99360.22
2022-11-05T14:12:21.840Z,99363.16
2022-11-05T14:14:58.869Z,99360.66
2022-11-05T14:17:32.586Z,99361.47
2022-11-05T14:20:39.791Z,99349.13
2022-11-05T14:23:46.661Z,99341.25
2022-11-05T14:26:22.582Z,99348.50
2022-11-05T14:29:13.064Z,99345.38
2022-11-05T14:34:48.204Z,99352.59
2022-11-05T14:37:28.490Z,99352.19
2022-11-05T14:39:58.372Z,99347.72
2022-11-05T14:42:30.471Z,99349.84
2022-11-05T14:45:04.378Z,99357.19
2022-11-05T14:47:36.680Z,99371.41
2022-11-05T14:50:11.428Z,99361.19
2022-11-05T14:52:41.705Z,99359.81
2022-11-05T14:55:27.231Z,99361.47
2022-11-05T14:58:06.643Z,99368.75
2022-11-05T15:00:49.384Z,99363.44
2022-11-05T15:03:38.577Z,99367.00
2022-11-05T15:06:23.920Z,99366.91
2022-11-05T15:09:01.925Z,99371.28
2022-11-05T15:11:33.464Z,99372.03
2022-11-05T15:14:06.304Z,99371.19
2022-11-05T15:16:37.769Z,99373.28
2022-11-05T15:19:11.206Z,99375.06
2022-11-05T15:21:41.262Z,99373.41
2022-11-05T15:24:12.590Z,99364.97
2022-11-05T15:26:48.415Z,99360.84
2022-11-05T15:29:22.056Z,99371.69
2022-11-05T15:31:52.771Z,99372.91
2022-11-05T15:34:25.532Z,99366.91
2022-11-05T15:36:56.522Z,99368.72
2022-11-05T15:39:30.434Z,99374.28
2022-11-05T15:42:01.966Z,99367.38
2022-11-05T15:44:34.672Z,99372.19
2022-11-05T15:47:17.414Z,99374.28
2022-11-05T15:49:48.103Z,99377.28
2022-11-05T15:52:24.005Z,99378.97
2022-11-05T15:55:15.577Z,99388.78
2022-11-05T15:57:50.436Z,99381.03
2022-11-05T16:00:22.631Z,99380.25
2022-11-05T16:02:55.897Z,99374.31
2022-11-05T16:05:27.322Z,99374.41
2022-11-05T16:07:59.025Z,99370.13
2022-11-05T16:10:30.591Z,99372.78
2022-11-05T16:12:59.125Z,99371.19
2022-11-05T16:15:32.685Z,99373.84
2022-11-05T16:18:01.391Z,99385.31
2022-11-05T16:20:32.093Z,99383.53
2022-11-05T16:23:02.158Z,99384.34
2022-11-05T16:25:37.311Z,99381.75
2022-11-05T16:28:08.313Z,99395.00
2022-11-05T16:30:38.082Z,99403.84
2022-11-05T16:33:08.437Z,99403.09
2022-11-05T16:35:41.087Z,99403.09
2022-11-05T16:38:13.092Z,99403.19
2022-11-05T16:40:44.244Z,99411.94
2022-11-05T16:43:19.442Z,99414.50
2022-11-05T16:45:50.358Z,99416.44
2022-11-05T16:48:18.865Z,99412.16
2022-11-05T16:50:47.545Z,99403.56
2022-11-05T16:53:16.084Z,99408.09
2022-11-05T16:55:46.180Z,99406.41
2022-11-05T16:58:20.923Z,99408.19
2022-11-05T17:00:52.924Z,99405.63
2022-11-05T17:03:21.331Z,99408.19
2022-11-05T17:05:49.857Z,99403.88
2022-11-05T17:08:18.361Z,99404.09
2022-11-05T17:10:46.894Z,99392.69
2022-11-05T17:13:16.310Z,99387.44
2022-11-05T17:15:46.507Z,99392.69
2022-11-05T17:18:18.984Z,99405.00
2022-11-05T17:20:49.560Z,99399.84
2022-11-05T17:23:20.138Z,99403.34
2022-11-05T17:25:51.483Z,99394.59
2022-11-05T17:28:20.468Z,99403.25
2022-11-05T17:30:52.882Z,99395.44
2022-11-05T17:33:23.682Z,99394.50
2022-11-05T17:35:53.569Z,99398.06
2022-11-05T17:38:22.805Z,99386.72
2022-11-05T17:40:51.990Z,99394.59
2022-11-05T17:43:21.098Z,99393.72
2022-11-05T17:45:52.757Z,99392.13
2022-11-05T17:48:22.936Z,99381.56
2022-11-05T17:50:52.163Z,99376.19
2022-11-05T17:53:20.930Z,99391.06
2022-11-05T17:55:49.539Z,99398.19
2022-11-05T17:58:18.187Z,99392.97
2022-11-05T18:00:47.585Z,99398.25
2022-11-05T18:03:16.394Z,99403.38
2022-11-05T18:05:46.176Z,99401.53
2022-11-05T18:08:14.611Z,99405.19
2022-11-05T18:10:43.300Z,99397.19
2022-11-05T18:13:12.234Z,99409.41
2022-11-05T18:15:41.769Z,99395.34
2022-11-05T18:18:10.911Z,99391.81
2022-11-05T18:20:39.726Z,99387.53
2022-11-05T18:23:09.992Z,99395.31
2022-11-05T18:25:43.660Z,99390.94
2022-11-05T18:28:12.377Z,99392.69
2022-11-05T18:30:41.126Z,99387.47
2022-11-05T18:33:09.832Z,99385.66
2022-11-05T18:35:42.151Z,99377.00
2022-11-05T18:38:12.408Z,99377.84
2022-11-05T18:40:40.819Z,99390.19
2022-11-05T18:43:09.442Z,99373.34
2022-11-05T18:45:38.137Z,99370.72
2022-11-05T18:48:07.157Z,99375.09
2022-11-05T18:50:35.542Z,99371.56
2022-11-05T18:53:03.843Z,99378.63
2022-11-05T18:55:33.553Z,99369.94
2022-11-05T18:58:01.944Z,99375.22
2022-11-05T19:00:32.005Z,99374.38
2022-11-05T19:03:00.580Z,99391.94
2022-11-05T19:05:30.097Z,99384.06
2022-11-05T19:07:59.379Z,99393.72
2022-11-05T19:10:28.323Z,99388.50
2022-11-05T19:12:58.192Z,99380.66
2022-11-05T19:15:26.699Z,99380.03
2022-11-05T19:17:54.987Z,99379.00
2022-11-05T19:20:23.323Z,99386.06
2022-11-05T19:22:51.747Z,99380.00
2022-11-05T19:25:20.245Z,99380.03
2022-11-05T19:27:48.748Z,99382.69
2022-11-05T19:30:18.835Z,99388.88
2022-11-05T19:32:47.177Z,99380.97
2022-11-05T19:35:15.571Z,99381.75
2022-11-05T19:37:44.575Z,99382.69
2022-11-05T19:40:13.429Z,99379.97
2022-11-05T19:42:41.876Z,99373.94
2022-11-05T19:45:43.069Z,99367.75
2022-11-05T19:48:04.044Z,99373.91
2022-11-05T19:50:32.598Z,99378.34
2022-11-05T19:53:01.130Z,99378.44
2022-11-05T19:55:29.517Z,99396.00
2022-11-05T19:57:57.859Z,99385.59
2022-11-05T20:00:26.210Z,99392.72
2022-11-05T20:02:54.714Z,99392.66
2022-11-05T20:05:24.541Z,99391.88
2022-11-05T20:07:53.407Z,99389.31
2022-11-05T20:10:22.213Z,99386.63
2022-11-05T20:12:50.625Z,99392.03
2022-11-05T20:15:19.806Z,99394.63
2022-11-05T20:17:52.101Z,99390.19
2022-11-05T20:20:20.901Z,99386.78
2022-11-05T20:22:52.904Z,99395.44
2022-11-05T20:25:21.319Z,99402.41
2022-11-05T20:27:49.956Z,99405.03
2022-11-05T20:30:18.920Z,99393.66
2022-11-05T20:32:47.394Z,99390.00
2022-11-05T20:35:15.794Z,99392.72
2022-11-05T20:37:45.042Z,99391.88
2022-11-05T20:40:16.659Z,99399.00
2022-11-05T20:42:45.151Z,99396.41
2022-11-05T20:45:13.623Z,99404.25
2022-11-05T20:47:42.708Z,99402.56
2022-11-05T20:50:11.212Z,99400.75
2022-11-05T20:52:39.624Z,99390.31
2022-11-05T20:55:09.573Z,99392.94
2022-11-05T20:57:42.113Z,99393.94
2022-11-05T21:00:11.579Z,99384.47
2022-11-05T21:02:41.179Z,99395.03
2022-11-05T21:05:10.002Z,99392.22
2022-11-05T21:07:43.861Z,99396.72
2022-11-05T21:10:12.699Z,99390.56
2022-11-05T21:12:42.806Z,99394.97
2022-11-05T21:15:12.170Z,99392.41
2022-11-05T21:17:40.927Z,99397.69
2022-11-05T21:20:09.987Z,99393.31
2022-11-05T21:22:38.529Z,99391.59
2022-11-05T21:25:07.777Z,99385.44
2022-11-05T21:27:39.938Z,99387.22
2022-11-05T21:30:13.108Z,99367.09
2022-11-05T21:32:41.515Z,99374.28
2022-11-05T21:35:10.101Z,99364.53
2022-11-05T21:37:38.783Z,99367.09
2022-11-05T21:40:08.152Z,99365.22
2022-11-05T21:42:36.627Z,99364.38
2022-11-05T21:45:05.588Z,99350.47
2022-11-05T21:47:35.832Z,99352.25
2022-11-05T21:50:04.752Z,99348.75
2022-11-05T21:52:50.925Z,99344.44
2022-11-05T21:55:52.350Z,99350.53
2022-11-05T21:58:38.250Z,99329.63
2022-11-05T22:01:06.717Z,99330.41
2022-11-05T22:03:36.653Z,99331.31
2022-11-05T22:06:05.276Z,99325.13
2022-11-05T22:08:33.617Z,99325.97
2022-11-05T22:11:04.454Z,99311.91
2022-11-05T22:13:32.772Z,99307.59
2022-11-05T22:16:01.183Z,99298.03
2022-11-05T22:18:29.800Z,99284.88
2022-11-05T22:20:59.482Z,99280.38
2022-11-05T22:23:27.972Z,99284.72
2022-11-05T22:26:00.179Z,99275.06
2022-11-05T22:28:28.562Z,99276.75
2022-11-05T22:30:57.209Z,99283.84
2022-11-05T22:33:25.715Z,99267.28
2022-11-05T22:35:54.097Z,99274.19
2022-11-05T22:38:23.831Z,99279.44
2022-11-05T22:40:52.172Z,99262.00
2022-11-05T22:43:20.560Z,99270.75
2022-11-05T22:45:48.882Z,99273.38
2022-11-05T22:48:17.298Z,99263.03
2022-11-05T22:50:45.957Z,99258.72
2022-11-05T22:53:14.300Z,99256.09
2022-11-05T22:55:43.961Z,99255.16
2022-11-05T22:58:12.677Z,99261.34
2022-11-05T23:00:41.306Z,99245.63
2022-11-05T23:03:09.961Z,99266.53
2022-11-05T23:05:38.376Z,99253.38
2022-11-05T23:08:24.404Z,99250.81
2022-11-05T23:11:23.082Z,99247.38
2022-11-05T23:13:51.349Z,99258.63
2022-11-05T23:16:37.462Z,99260.38
2022-11-05T23:19:23.395Z,99259.53
2022-11-05T23:22:09.194Z,99256.84
2022-11-05T23:24:37.552Z,99271.78
2022-11-05T23:27:07.205Z,99264.06
2022-11-05T23:29:35.793Z,99266.66
2022-11-05T23:32:21.750Z,99268.41
2022-11-05T23:34:50.210Z,99269.28
2022-11-05T23:37:36.501Z,99260.41
2022-11-05T23:40:07.027Z,99271.78
2022-11-05T23:42:54.411Z,99265.59
2022-11-05T23:45:40.128Z,99269.13
2022-11-05T23:48:18.486Z,99276.06
2022-11-05T23:50:50.643Z,99269.16
2022-11-05T23:53:19.710Z,99269.97
2022-11-05T23:55:48.421Z,99264.75
2022-11-05T23:58:18.783Z,99257.75
